Etusivu
METAR-TAF:

METAR-TAF

Lentoasemat :

San Sebastiánin lentoasema

San Sebastián, Espanja

Leveyspiiri: 43-21N, Pituuspiiri: 001-48W, korkeus merenpinnasta: 5 m

Tämänhetkinen sää

Tämä raportti tehtiin 25 minuuttia sitten, kello 07.00 UTC
Tuuli 5 kn idästä/koillisesta, vaihdellen pohjoisen ja idän välillä
Lämpötila 8°C
Kosteus 71%
Ilmanpaine 1022 hPa
Näkyvyys 10 km tai enemmän
ei pilviä alle 1500 m:ssä eikä cumulonimbus-pilviä

METAR: LESO 210700Z 06005KT 010V080 CAVOK 08/03 Q1022

Aika: 09:25 (07:25 UTC)

Sääennuste

Tämä raportti tehtiin 2 tuntia ja 25 minuuttia sitten, kello 05.00 UTC
Ennuste voimassa 21. päivästä klo 06 UTC - 22. päivään klo 06 UTC
Tuuli 9 kn pohjoisesta
Näkyvyys 10 km tai enemmän
Muutamia pilviä 3000 ft:n korkeudessa

TAF: LESO 210500Z 2106/2206 36009KT 9999 FEW030 TX15/2114Z TN06/2206Z

Säähavainnot ja -ennusteet yli 4000 lentoasemalta (METAR- ja TAF-raportit).

Käytössä olevat sääasemat on merkitty karttaan keltaisilla ja punaisilla pisteillä.

Aseta hiiri pisteen päälle nähdäksesi sääaseman nimen.

Klikkaa sitten nähdäksesi säähavainnot ja -ennusteet.

Kartan vaihtaminen: klikkaa mustalla rastilla varustettuja vihreitä pisteitä, niin voit zoomata sisään; viivalla varustettua vihreää pistettä, niin voit zoomata ulos tai vihreitä nuolia, niin pääset viereisille kartoille.


METAR-TAF: